TimeCST,TemperatureF,Dew PointF,Humidity,Sea Level PressureIn,VisibilityMPH,Wind Direction,Wind SpeedMPH,Gust SpeedMPH,PrecipitationIn,Events,Conditions,WindDirDegrees,DateUTC
12:53 AM,52.0,48.0,86,30.14,10.0,SE,3.5,-,N/A,,Mostly Cloudy,140,2012-11-27 06:53:00
1:53 AM,51.1,48.0,89,30.12,10.0,Calm,Calm,-,N/A,,Partly Cloudy,0,2012-11-27 07:53:00
2:53 AM,54.0,50.0,86,30.12,10.0,Calm,Calm,-,N/A,,Overcast,0,2012-11-27 08:53:00
3:53 AM,55.0,51.1,86,30.11,10.0,Calm,Calm,-,N/A,,Overcast,0,2012-11-27 09:53:00
4:08 AM,55.4,51.8,88,30.12,10.0,Calm,Calm,-,N/A,,Overcast,0,2012-11-27 10:08:00
4:53 AM,55.0,52.0,89,30.12,2.0,Calm,Calm,-,0.05,Rain,Heavy Rain,0,2012-11-27 10:53:00
5:08 AM,55.4,53.6,94,30.12,5.0,Calm,Calm,-,0.03,Rain,Light Rain,0,2012-11-27 11:08:00
5:29 AM,57.2,55.4,94,30.12,7.0,Calm,Calm,-,0.03,Rain,Light Rain,0,2012-11-27 11:29:00
5:44 AM,57.2,55.4,94,30.12,6.0,Calm,Calm,-,0.03,,Overcast,0,2012-11-27 11:44:00
5:53 AM,57.9,55.9,93,30.11,6.0,Calm,Calm,-,0.03,,Overcast,0,2012-11-27 11:53:00
6:20 AM,57.2,55.4,94,30.12,5.0,SSW,3.5,-,0.00,Rain,Light Rain,200,2012-11-27 12:20:00
6:50 AM,59.0,57.2,94,30.13,5.0,Calm,Calm,-,0.00,,Overcast,0,2012-11-27 12:50:00
6:53 AM,57.9,57.0,97,30.12,4.0,Calm,Calm,-,0.00,,Overcast,0,2012-11-27 12:53:00
7:06 AM,57.2,55.4,94,30.13,3.0,Calm,Calm,-,N/A,,Overcast,0,2012-11-27 13:06:00
7:14 AM,57.2,55.4,94,30.13,2.5,Calm,Calm,-,N/A,,Overcast,0,2012-11-27 13:14:00
7:24 AM,60.8,57.2,88,30.16,5.0,NNW,12.7,21.9,N/A,,Overcast,340,2012-11-27 13:24:00
7:38 AM,60.8,55.4,82,30.17,4.0,NNW,9.2,-,0.05,Rain,Heavy Rain,340,2012-11-27 13:38:00
7:50 AM,60.8,57.2,88,30.17,2.5,NNW,4.6,-,0.10,Rain,Heavy Rain,340,2012-11-27 13:50:00
7:53 AM,59.0,57.0,93,30.17,1.8,North,5.8,-,0.12,Rain,Heavy Rain,350,2012-11-27 13:53:00
8:07 AM,59.0,57.2,94,30.17,2.5,Variable,5.8,-,0.05,Rain,Heavy Rain,0,2012-11-27 14:07:00
8:21 AM,60.8,57.2,88,30.17,6.0,Calm,Calm,-,0.08,Rain,Light Rain,0,2012-11-27 14:21:00
8:53 AM,60.1,57.0,90,30.17,10.0,Calm,Calm,-,0.09,Rain,Light Rain,0,2012-11-27 14:53:00
9:53 AM,62.1,57.9,86,30.16,10.0,North,3.5,-,0.00,,Overcast,360,2012-11-27 15:53:00
10:53 AM,62.1,59.0,90,30.18,8.0,West,3.5,-,0.02,Rain,Light Rain,260,2012-11-27 16:53:00
11:53 AM,62.1,59.0,90,30.17,5.0,SSE,3.5,-,0.04,Rain,Rain,150,2012-11-27 17:53:00
12:53 PM,61.0,59.0,93,30.13,6.0,SSE,3.5,-,0.05,Rain,Light Rain,160,2012-11-27 18:53:00
1:33 PM,62.6,59.0,88,30.14,9.0,NW,3.5,-,0.01,,Mostly Cloudy,320,2012-11-27 19:33:00
2:00 PM,62.6,57.2,82,30.13,10.0,NNW,6.9,-,N/A,,Overcast,330,2012-11-27 20:00:00
2:23 PM,60.8,57.2,88,30.14,10.0,NNW,6.9,-,N/A,,Overcast,340,2012-11-27 20:23:00
2:41 PM,62.6,57.2,82,30.14,10.0,Calm,Calm,-,N/A,,Overcast,0,2012-11-27 20:41:00
2:53 PM,62.1,57.9,86,30.15,10.0,Variable,4.6,-,N/A,,Mostly Cloudy,0,2012-11-27 20:53:00
3:53 PM,61.0,57.0,87,30.17,10.0,NNW,4.6,-,N/A,,Overcast,330,2012-11-27 21:53:00
4:00 PM,60.8,57.2,88,30.18,5.0,Variable,4.6,-,N/A,,Overcast,0,2012-11-27 22:00:00
4:07 PM,59.0,55.4,88,30.19,2.5,NNW,10.4,-,N/A,,Overcast,330,2012-11-27 22:07:00
4:30 PM,57.2,55.4,94,30.19,4.0,NNW,5.8,18.4,N/A,,Overcast,340,2012-11-27 22:30:00
4:53 PM,57.0,55.0,93,30.19,3.0,NNW,5.8,-,N/A,,Overcast,330,2012-11-27 22:53:00
5:28 PM,55.4,53.6,94,30.21,2.0,NNW,8.1,-,N/A,,Overcast,330,2012-11-27 23:28:00
5:42 PM,55.4,53.6,94,30.22,3.0,NNW,6.9,-,N/A,,Overcast,330,2012-11-27 23:42:00
5:53 PM,55.0,52.0,89,30.22,5.0,NW,6.9,-,N/A,,Overcast,320,2012-11-27 23:53:00
6:50 PM,53.6,51.8,94,30.25,2.0,NNW,9.2,-,N/A,,Overcast,340,2012-11-28 00:50:00
6:53 PM,53.1,51.1,93,30.26,2.0,NNW,9.2,-,N/A,,Overcast,330,2012-11-28 00:53:00
7:21 PM,53.6,51.8,94,30.26,1.8,NNW,5.8,-,N/A,,Overcast,330,2012-11-28 01:21:00
7:31 PM,53.6,51.8,94,30.26,2.0,NNW,5.8,-,N/A,,Overcast,330,2012-11-28 01:31:00
7:46 PM,53.6,50.0,88,30.26,4.0,NNW,4.6,-,N/A,,Overcast,340,2012-11-28 01:46:00
7:53 PM,53.1,50.0,89,30.26,5.0,NNW,4.6,-,N/A,,Overcast,340,2012-11-28 01:53:00
8:20 PM,51.8,48.2,88,30.26,8.0,NNW,6.9,-,N/A,,Overcast,330,2012-11-28 02:20:00
8:53 PM,52.0,48.9,89,30.27,8.0,NNW,9.2,-,N/A,,Overcast,340,2012-11-28 02:53:00
9:33 PM,51.8,48.2,88,30.28,8.0,NNW,6.9,-,N/A,,Overcast,340,2012-11-28 03:33:00
9:53 PM,51.1,48.0,89,30.28,9.0,NNW,5.8,-,N/A,,Overcast,340,2012-11-28 03:53:00
10:53 PM,51.1,48.0,89,30.27,7.0,NNW,9.2,-,N/A,,Overcast,340,2012-11-28 04:53:00
11:53 PM,50.0,46.9,89,30.28,6.0,NNW,4.6,-,N/A,,Overcast,330,2012-11-28 05:53:00